Time;durP1;ratioP1;P1;durP2;ratioP2;P2;SDS_P1;SDS_P2;PMS_P1;PMS_P2;Temp;Humidity;BMP_temperature;BMP_pressure;BME280_temperature;BME280_humidity;BME280_pressure;Samples;Min_cycle;Max_cycle;Signal;HPM_P1;HPM_P2
2023/12/07 00:01:03;;;;;;;41.50;23.63;;;1.40;99.90;;;;;;5189336;28;20639;-50
2023/12/07 00:03:33;;;;;;;35.40;22.67;;;1.40;99.90;;;;;;5201191;28;20214;-51
2023/12/07 00:06:04;;;;;;;39.40;21.80;;;1.40;99.90;;;;;;5144176;28;20614;-52
2023/12/07 00:08:35;;;;;;;33.27;20.20;;;1.30;99.90;;;;;;5148240;28;20194;-51
2023/12/07 00:11:05;;;;;;;44.30;23.10;;;1.40;99.90;;;;;;5190404;28;20248;-50
2023/12/07 00:13:36;;;;;;;41.00;23.13;;;1.40;99.90;;;;;;5187811;28;20290;-50
2023/12/07 00:16:07;;;;;;;36.33;21.63;;;1.30;99.90;;;;;;5136686;28;20304;-50
2023/12/07 00:18:38;;;;;;;33.87;21.37;;;1.40;99.90;;;;;;5167751;28;20558;-49
2023/12/07 00:21:09;;;;;;;39.87;22.50;;;1.40;99.90;;;;;;5187313;28;20190;-49
2023/12/07 00:23:39;;;;;;;37.07;22.00;;;1.40;99.90;;;;;;5189963;28;20217;-49
2023/12/07 00:26:10;;;;;;;41.67;23.30;;;1.40;99.90;;;;;;5190224;28;20802;-50
2023/12/07 00:28:41;;;;;;;35.17;21.70;;;1.50;99.90;;;;;;5187529;28;20187;-51
2023/12/07 00:31:12;;;;;;;55.73;27.50;;;1.40;99.90;;;;;;5124495;28;21183;-49
2023/12/07 00:33:45;;;;;;;39.87;23.60;;;1.40;99.90;;;;;;5189729;28;20210;-49
2023/12/07 00:36:16;;;;;;;44.23;25.40;;;1.40;99.90;;;;;;5127796;28;21183;-50
2023/12/07 00:38:47;;;;;;;33.40;20.80;;;1.50;99.90;;;;;;5187721;28;20454;-49
2023/12/07 00:41:17;;;;;;;33.50;21.23;;;1.50;99.90;;;;;;5190729;28;20259;-49
2023/12/07 00:43:48;;;;;;;35.33;20.10;;;1.50;99.90;;;;;;5121424;28;20221;-50
2023/12/07 00:46:19;;;;;;;40.53;22.67;;;1.40;99.90;;;;;;5120088;28;20230;-49
2023/12/07 00:48:49;;;;;;;44.63;25.00;;;1.40;99.90;;;;;;5123658;28;20182;-49
2023/12/07 00:51:20;;;;;;;56.57;25.80;;;1.40;99.90;;;;;;5122901;28;20227;-51
2023/12/07 00:53:50;;;;;;;43.83;23.17;;;1.40;99.90;;;;;;5183281;28;20203;-49
2023/12/07 00:56:21;;;;;;;49.73;27.40;;;1.40;99.90;;;;;;5121332;28;20267;-50
2023/12/07 00:58:52;;;;;;;48.43;25.60;;;1.40;99.90;;;;;;5188553;28;20650;-49
2023/12/07 01:01:22;;;;;;;53.97;27.40;;;1.40;99.90;;;;;;5123406;28;20673;-49
2023/12/07 01:03:53;;;;;;;68.27;34.10;;;1.50;99.90;;;;;;5185109;28;20214;-48
2023/12/07 01:06:24;;;;;;;54.27;27.30;;;1.50;99.90;;;;;;5120782;28;20190;-49
2023/12/07 01:08:54;;;;;;;43.30;24.60;;;1.50;99.90;;;;;;5188801;28;20198;-49
2023/12/07 01:11:25;;;;;;;44.93;24.60;;;1.50;99.90;;;;;;5121092;28;20186;-49
2023/12/07 01:13:56;;;;;;;37.30;22.50;;;1.50;99.90;;;;;;5120396;28;20245;-49
2023/12/07 01:16:26;;;;;;;44.83;24.60;;;1.50;99.90;;;;;;5120769;28;20191;-49
2023/12/07 01:18:57;;;;;;;38.03;22.37;;;1.50;99.90;;;;;;5189654;28;20270;-50
2023/12/07 01:21:28;;;;;;;41.23;23.60;;;1.60;99.90;;;;;;5119004;28;20421;-52
2023/12/07 01:23:59;;;;;;;39.37;21.67;;;1.60;99.90;;;;;;5123401;28;20508;-51
2023/12/07 01:26:30;;;;;;;45.93;25.93;;;1.60;99.90;;;;;;5129193;28;20186;-50
2023/12/07 01:29:00;;;;;;;39.40;22.00;;;1.60;99.90;;;;;;5134074;28;20195;-51
2023/12/07 01:31:31;;;;;;;37.47;21.57;;;1.60;99.90;;;;;;5119339;28;20233;-51
2023/12/07 01:34:02;;;;;;;39.10;21.37;;;1.50;99.90;;;;;;5123894;28;20214;-50
2023/12/07 01:36:32;;;;;;;39.73;21.90;;;1.60;99.90;;;;;;5120474;29;20190;-50
2023/12/07 01:39:03;;;;;;;37.17;21.20;;;1.50;99.90;;;;;;5119854;29;20182;-51
2023/12/07 01:41:33;;;;;;;32.73;20.93;;;1.50;99.90;;;;;;5120872;29;20538;-51
2023/12/07 01:44:04;;;;;;;31.43;19.77;;;1.60;99.90;;;;;;5131517;28;20202;-51
2023/12/07 01:46:36;;;;;;;33.00;19.97;;;1.60;99.90;;;;;;5167920;28;20191;-50
2023/12/07 01:49:07;;;;;;;29.27;20.27;;;1.50;99.90;;;;;;5172355;28;20182;-50
2023/12/07 01:51:38;;;;;;;32.40;19.93;;;1.60;99.90;;;;;;5119637;28;20946;-50
2023/12/07 01:54:08;;;;;;;30.53;18.63;;;1.60;99.90;;;;;;5183596;28;20343;-51
2023/12/07 01:56:39;;;;;;;36.07;19.83;;;1.60;99.90;;;;;;5186446;28;20449;-51
2023/12/07 01:59:11;;;;;;;32.97;18.30;;;1.50;99.90;;;;;;5187318;28;20435;-51
2023/12/07 02:01:41;;;;;;;32.10;18.73;;;1.50;99.90;;;;;;5187408;28;20286;-51
2023/12/07 02:04:12;;;;;;;28.70;19.27;;;1.50;99.90;;;;;;5183410;28;20544;-52
2023/12/07 02:06:43;;;;;;;29.47;18.70;;;1.50;99.90;;;;;;5128333;28;20609;-52
2023/12/07 02:09:13;;;;;;;30.93;19.00;;;1.50;99.90;;;;;;5119937;28;20552;-52
2023/12/07 02:11:44;;;;;;;33.80;19.90;;;1.50;99.90;;;;;;5184621;28;20191;-51
2023/12/07 02:14:15;;;;;;;38.30;20.17;;;1.50;99.90;;;;;;5124256;28;20274;-50
2023/12/07 02:16:50;;;;;;;32.77;20.23;;;1.50;99.90;;;;;;5123317;28;20187;-51
2023/12/07 02:19:42;;;;;;;31.40;19.57;;;1.60;99.90;;;;;;5176129;28;20299;-50
2023/12/07 02:22:21;;;;;;;35.00;18.67;;;1.60;99.90;;;;;;5127666;28;20528;-52
2023/12/07 02:25:07;;;;;;;34.73;19.97;;;1.60;99.90;;;;;;5125529;28;20456;-51
2023/12/07 02:27:45;;;;;;;47.80;25.07;;;1.60;99.90;;;;;;5190040;28;20459;-51
2023/12/07 02:30:16;;;;;;;33.27;19.97;;;1.50;99.90;;;;;;5124363;28;20465;-51
2023/12/07 02:32:46;;;;;;;40.37;22.10;;;1.50;99.90;;;;;;5192657;28;20485;-49
2023/12/07 02:35:17;;;;;;;33.57;20.53;;;1.50;99.90;;;;;;5173638;28;20198;-50
2023/12/07 02:37:49;;;;;;;34.80;20.03;;;1.50;99.90;;;;;;5185223;28;20202;-50
2023/12/07 02:40:26;;;;;;;36.27;21.50;;;1.50;99.90;;;;;;5121120;29;20179;-51
2023/12/07 02:42:58;;;;;;;34.73;20.43;;;1.50;99.90;;;;;;5122075;28;20460;-52
2023/12/07 02:45:29;;;;;;;27.90;18.70;;;1.50;99.90;;;;;;5119323;28;20441;-52
2023/12/07 02:47:59;;;;;;;34.23;20.30;;;1.50;99.90;;;;;;5120743;29;20433;-51
2023/12/07 02:50:30;;;;;;;32.90;18.73;;;1.50;99.90;;;;;;5189812;28;20831;-52
2023/12/07 02:53:01;;;;;;;31.13;19.60;;;1.50;99.90;;;;;;5123992;28;20206;-51
2023/12/07 02:55:31;;;;;;;34.77;20.63;;;1.50;99.90;;;;;;5187522;28;20573;-51
2023/12/07 02:58:02;;;;;;;28.13;17.60;;;1.50;99.90;;;;;;5175171;28;20190;-52
2023/12/07 03:00:33;;;;;;;32.30;19.50;;;1.50;99.90;;;;;;5186695;28;20647;-53
2023/12/07 03:03:04;;;;;;;33.50;19.00;;;1.60;99.90;;;;;;5211970;23;20490;-47
2023/12/07 03:05:34;;;;;;;33.90;19.50;;;1.50;99.90;;;;;;5215925;28;20185;-48
2023/12/07 03:08:05;;;;;;;35.60;20.27;;;1.50;99.90;;;;;;5192529;28;20263;-47
2023/12/07 03:10:36;;;;;;;27.10;17.90;;;1.50;99.90;;;;;;5208654;28;20789;-47
2023/12/07 03:13:06;;;;;;;35.10;18.10;;;1.50;99.90;;;;;;5194735;28;20465;-47
2023/12/07 03:15:37;;;;;;;28.90;18.47;;;1.50;99.90;;;;;;5215563;28;20179;-47
2023/12/07 03:18:08;;;;;;;30.63;19.97;;;1.50;99.90;;;;;;5194171;28;20201;-47
2023/12/07 03:20:38;;;;;;;35.43;21.03;;;1.60;99.90;;;;;;5213122;28;20180;-47
2023/12/07 03:23:09;;;;;;;30.00;19.00;;;1.50;99.90;;;;;;5223628;28;20297;-46
2023/12/07 03:25:39;;;;;;;34.33;19.07;;;1.50;99.90;;;;;;5198336;28;20274;-48
2023/12/07 03:28:10;;;;;;;33.07;19.77;;;1.50;99.90;;;;;;5196089;28;20187;-47
2023/12/07 03:30:41;;;;;;;27.10;17.60;;;1.50;99.90;;;;;;5198467;28;20566;-47
2023/12/07 03:33:11;;;;;;;30.83;19.53;;;1.50;99.90;;;;;;5193695;28;20295;-47
2023/12/07 03:35:42;;;;;;;28.63;17.77;;;1.50;99.90;;;;;;5193063;28;20206;-48
2023/12/07 03:38:12;;;;;;;36.70;20.57;;;1.50;99.90;;;;;;5208169;28;20536;-48
2023/12/07 03:40:47;;;;;;;36.37;20.03;;;1.50;99.90;;;;;;5210596;28;20183;-49
2023/12/07 03:43:19;;;;;;;28.70;18.23;;;1.60;99.90;;;;;;5217611;28;20297;-50
2023/12/07 03:45:51;;;;;;;41.00;21.80;;;1.60;99.90;;;;;;5194439;28;20430;-46
2023/12/07 03:48:22;;;;;;;42.30;20.63;;;1.60;99.90;;;;;;5209403;28;20434;-46
2023/12/07 03:50:53;;;;;;;33.50;20.90;;;1.60;99.90;;;;;;5195587;28;20603;-48
2023/12/07 03:53:23;;;;;;;33.73;19.57;;;1.60;99.90;;;;;;5195144;28;20200;-48
2023/12/07 03:55:55;;;;;;;33.90;20.17;;;1.60;99.90;;;;;;5216163;28;20192;-47
2023/12/07 03:58:26;;;;;;;33.10;20.13;;;1.60;99.90;;;;;;5194162;28;20187;-46
2023/12/07 04:00:57;;;;;;;40.43;20.10;;;1.60;99.90;;;;;;5196696;28;20435;-47
2023/12/07 04:03:27;;;;;;;42.03;21.90;;;1.50;99.90;;;;;;5197713;28;20257;-49
2023/12/07 04:05:58;;;;;;;34.90;20.93;;;1.60;99.90;;;;;;5195756;28;20434;-46
2023/12/07 04:08:29;;;;;;;43.47;21.03;;;1.50;99.90;;;;;;5193875;28;20187;-48
2023/12/07 04:10:59;;;;;;;45.10;21.67;;;1.60;99.90;;;;;;5192123;28;20223;-48
2023/12/07 04:13:30;;;;;;;36.97;20.60;;;1.60;99.90;;;;;;5206040;28;20203;-48
2023/12/07 04:16:00;;;;;;;42.00;22.43;;;1.60;99.90;;;;;;5208727;28;20180;-47
2023/12/07 04:18:31;;;;;;;31.50;19.33;;;1.50;99.90;;;;;;5194726;28;20215;-47
2023/12/07 04:21:02;;;;;;;40.53;21.50;;;1.50;99.90;;;;;;5211557;28;20270;-47
2023/12/07 04:23:33;;;;;;;43.07;21.97;;;1.50;99.90;;;;;;5205753;28;20195;-46
2023/12/07 04:26:04;;;;;;;37.90;20.10;;;1.60;99.90;;;;;;5194309;28;20446;-47
2023/12/07 04:28:35;;;;;;;39.23;21.97;;;1.50;99.90;;;;;;5214796;28;20183;-49
2023/12/07 04:31:05;;;;;;;41.77;21.30;;;1.60;99.90;;;;;;5191433;28;20469;-47
2023/12/07 04:33:36;;;;;;;43.33;21.40;;;1.60;99.90;;;;;;5208444;28;20202;-47
2023/12/07 04:36:07;;;;;;;42.67;22.53;;;1.60;99.90;;;;;;5194991;28;20179;-47
2023/12/07 04:38:38;;;;;;;45.97;22.40;;;1.60;99.90;;;;;;5211109;28;20172;-47
2023/12/07 04:41:08;;;;;;;38.57;21.47;;;1.60;99.90;;;;;;5199874;28;20961;-47
2023/12/07 04:43:39;;;;;;;34.33;21.13;;;1.60;99.90;;;;;;5199432;28;20218;-51
2023/12/07 04:46:10;;;;;;;38.03;20.27;;;1.60;99.90;;;;;;5223699;28;20225;-46
2023/12/07 04:48:41;;;;;;;49.23;24.00;;;1.60;99.90;;;;;;5190374;28;20485;-48
2023/12/07 04:51:11;;;;;;;38.53;22.20;;;1.60;99.90;;;;;;5198552;28;20664;-47
2023/12/07 04:53:42;;;;;;;51.83;21.83;;;1.60;99.90;;;;;;5189558;28;20199;-47
2023/12/07 04:56:13;;;;;;;39.80;21.07;;;1.60;99.90;;;;;;5206484;28;20180;-47
2023/12/07 04:58:44;;;;;;;39.63;20.40;;;1.60;99.90;;;;;;5210320;28;20643;-46
2023/12/07 05:01:14;;;;;;;44.10;20.93;;;1.60;99.90;;;;;;5211446;28;20420;-46
2023/12/07 05:03:45;;;;;;;42.50;21.70;;;1.60;99.90;;;;;;5189012;28;20215;-47
2023/12/07 05:06:16;;;;;;;34.13;20.83;;;1.60;99.90;;;;;;5190549;28;20548;-48
2023/12/07 05:08:46;;;;;;;43.17;22.10;;;1.60;99.90;;;;;;5211183;28;20517;-47
2023/12/07 05:11:17;;;;;;;42.43;23.03;;;1.60;99.90;;;;;;5214055;28;20234;-47
2023/12/07 05:13:48;;;;;;;36.87;20.43;;;1.60;99.90;;;;;;5207539;28;20199;-48
2023/12/07 05:16:18;;;;;;;42.57;21.73;;;1.60;99.90;;;;;;5199425;28;20278;-47
2023/12/07 05:18:49;;;;;;;35.80;20.47;;;1.60;99.90;;;;;;5195163;28;20211;-47
2023/12/07 05:21:20;;;;;;;38.73;20.63;;;1.60;99.90;;;;;;5205924;28;20233;-48
2023/12/07 05:23:50;;;;;;;41.70;22.13;;;1.60;99.90;;;;;;5205801;28;21010;-47
2023/12/07 05:26:21;;;;;;;35.97;20.27;;;1.60;99.90;;;;;;5190747;28;20183;-47
2023/12/07 05:28:51;;;;;;;43.83;21.47;;;1.50;99.90;;;;;;5209986;28;20573;-47
2023/12/07 05:31:22;;;;;;;40.13;20.93;;;1.50;99.90;;;;;;5196901;28;20203;-48
2023/12/07 05:33:53;;;;;;;41.27;21.50;;;1.50;99.90;;;;;;5192101;28;20566;-47
2023/12/07 05:36:23;;;;;;;44.40;21.63;;;1.50;99.90;;;;;;5195085;28;20179;-47
2023/12/07 05:38:54;;;;;;;40.90;20.70;;;1.50;99.90;;;;;;5210535;28;20191;-45
2023/12/07 05:41:25;;;;;;;50.37;21.77;;;1.60;99.90;;;;;;5208017;28;20187;-46
2023/12/07 05:43:55;;;;;;;44.53;22.10;;;1.60;99.90;;;;;;5206716;28;20234;-48
2023/12/07 05:46:27;;;;;;;40.93;20.13;;;1.50;99.90;;;;;;5204222;28;20188;-48
2023/12/07 05:48:58;;;;;;;43.63;21.37;;;1.60;99.90;;;;;;5202698;28;20606;-49
2023/12/07 05:51:28;;;;;;;44.73;20.13;;;1.60;99.90;;;;;;5208235;28;20462;-49
2023/12/07 05:53:59;;;;;;;36.83;19.40;;;1.60;99.90;;;;;;5207629;28;20206;-47
2023/12/07 05:56:31;;;;;;;39.97;20.70;;;1.60;99.90;;;;;;5210354;28;20179;-48
2023/12/07 05:59:01;;;;;;;48.77;21.37;;;1.60;99.90;;;;;;5193622;28;20172;-48
2023/12/07 06:01:32;;;;;;;43.20;21.33;;;1.60;99.90;;;;;;5205226;28;20453;-47
2023/12/07 06:04:03;;;;;;;39.63;20.30;;;1.60;99.90;;;;;;5197252;28;20207;-47
2023/12/07 06:06:33;;;;;;;38.50;21.30;;;1.60;99.90;;;;;;5188541;28;20274;-48
2023/12/07 06:09:05;;;;;;;46.53;20.13;;;1.60;99.90;;;;;;5208040;28;20269;-48
2023/12/07 06:11:36;;;;;;;41.80;20.43;;;1.60;99.90;;;;;;5202464;28;20183;-47
2023/12/07 06:14:07;;;;;;;35.77;18.90;;;1.60;99.90;;;;;;5215654;28;20532;-48
2023/12/07 06:16:38;;;;;;;44.47;21.83;;;1.60;99.90;;;;;;5202248;28;20179;-46
2023/12/07 06:19:08;;;;;;;46.33;19.73;;;1.60;99.90;;;;;;5208929;28;20771;-47
2023/12/07 06:21:39;;;;;;;44.60;22.20;;;1.60;99.90;;;;;;5193139;28;20177;-49
2023/12/07 06:24:10;;;;;;;51.70;23.73;;;1.60;99.90;;;;;;5195620;28;20200;-47
2023/12/07 06:26:40;;;;;;;50.17;22.27;;;1.60;99.90;;;;;;5204555;28;20188;-48
2023/12/07 06:29:11;;;;;;;39.13;21.27;;;1.60;99.90;;;;;;5211112;28;20175;-50
2023/12/07 06:31:45;;;;;;;42.90;21.77;;;1.60;99.90;;;;;;5212917;28;20221;-48
2023/12/07 06:34:16;;;;;;;48.90;22.83;;;1.60;99.90;;;;;;5188596;28;20199;-47
2023/12/07 06:36:47;;;;;;;40.70;20.87;;;1.60;99.90;;;;;;5189255;28;20430;-48
2023/12/07 06:39:18;;;;;;;41.37;20.33;;;1.70;99.90;;;;;;5209552;28;20452;-46
2023/12/07 06:41:49;;;;;;;43.43;21.00;;;1.70;99.90;;;;;;5209400;28;20513;-48
2023/12/07 06:44:19;;;;;;;35.60;19.57;;;1.70;99.90;;;;;;5208215;28;20525;-47
2023/12/07 06:46:50;;;;;;;43.10;22.00;;;1.70;99.90;;;;;;5199776;28;20187;-47
2023/12/07 06:49:20;;;;;;;42.63;21.37;;;1.70;99.90;;;;;;5196408;28;20218;-47
2023/12/07 06:51:51;;;;;;;47.27;22.50;;;1.70;99.90;;;;;;5209985;28;20256;-47
2023/12/07 06:54:22;;;;;;;41.80;21.00;;;1.70;99.90;;;;;;5197255;28;20294;-47
2023/12/07 06:56:53;;;;;;;45.57;22.67;;;1.70;99.90;;;;;;5209600;28;20186;-47
2023/12/07 06:59:24;;;;;;;43.00;18.80;;;1.70;99.90;;;;;;5198141;28;20206;-47
2023/12/07 07:01:54;;;;;;;42.07;21.07;;;1.70;99.90;;;;;;5197247;28;20823;-48
2023/12/07 07:04:25;;;;;;;44.90;21.10;;;1.70;99.90;;;;;;5195039;28;20219;-49
2023/12/07 07:06:56;;;;;;;41.93;20.67;;;1.70;99.90;;;;;;5192356;28;20690;-47
2023/12/07 07:09:27;;;;;;;41.67;20.90;;;1.70;99.90;;;;;;5207991;28;20210;-47
2023/12/07 07:11:57;;;;;;;43.47;19.80;;;1.70;99.90;;;;;;5213475;28;20974;-50
2023/12/07 07:14:28;;;;;;;54.10;22.90;;;1.70;99.90;;;;;;5197066;28;20239;-50
2023/12/07 07:16:59;;;;;;;41.93;22.03;;;1.70;99.90;;;;;;5195722;28;20168;-47
2023/12/07 07:19:29;;;;;;;38.03;19.17;;;1.60;99.90;;;;;;5187298;28;20183;-47
2023/12/07 07:22:00;;;;;;;40.73;20.23;;;1.70;99.90;;;;;;5206084;28;20190;-49
2023/12/07 07:24:31;;;;;;;71.03;20.40;;;1.70;99.90;;;;;;5211880;28;20199;-47
2023/12/07 07:27:02;;;;;;;50.97;22.17;;;1.70;99.90;;;;;;5194623;28;20678;-47
2023/12/07 07:29:33;;;;;;;35.87;21.10;;;1.80;99.90;;;;;;5204573;28;20218;-47
2023/12/07 07:32:04;;;;;;;51.83;23.17;;;1.80;99.90;;;;;;5225329;28;20425;-47
2023/12/07 07:34:35;;;;;;;47.60;21.83;;;1.80;99.90;;;;;;5212831;28;20210;-50
2023/12/07 07:37:06;;;;;;;44.00;20.50;;;1.70;99.90;;;;;;5205049;28;20434;-47
2023/12/07 07:39:37;;;;;;;44.43;21.30;;;1.80;99.90;;;;;;5194740;28;20706;-46
2023/12/07 07:42:08;;;;;;;42.53;21.13;;;1.80;99.90;;;;;;5222674;28;20453;-49
2023/12/07 07:44:38;;;;;;;50.87;21.57;;;1.80;99.90;;;;;;5214280;28;20227;-48
2023/12/07 07:47:09;;;;;;;40.50;19.90;;;1.80;99.90;;;;;;5211530;28;20255;-48
2023/12/07 07:49:40;;;;;;;49.53;22.80;;;1.80;99.90;;;;;;5213863;28;20680;-47
2023/12/07 07:52:11;;;;;;;36.63;18.60;;;1.80;99.90;;;;;;5197623;28;20179;-48
2023/12/07 07:54:42;;;;;;;47.23;21.97;;;1.90;99.90;;;;;;5212387;28;20207;-47
2023/12/07 07:57:12;;;;;;;44.43;20.80;;;2.00;99.90;;;;;;5215699;28;20434;-47
2023/12/07 07:59:43;;;;;;;46.60;22.33;;;2.00;99.90;;;;;;5194957;28;21024;-48
2023/12/07 08:02:14;;;;;;;43.93;21.50;;;2.00;99.90;;;;;;5210083;28;20241;-48
2023/12/07 08:04:44;;;;;;;48.90;21.93;;;2.00;99.90;;;;;;5194068;28;20218;-49
2023/12/07 08:07:15;;;;;;;47.97;21.03;;;2.10;99.90;;;;;;5194412;28;20583;-47
2023/12/07 08:09:46;;;;;;;41.20;19.17;;;2.00;99.90;;;;;;5208365;28;20238;-46
2023/12/07 08:12:16;;;;;;;36.60;18.97;;;2.00;99.90;;;;;;5199936;28;20176;-49
2023/12/07 08:14:48;;;;;;;36.30;19.40;;;2.10;99.90;;;;;;5200966;28;20525;-47
2023/12/07 08:17:19;;;;;;;40.30;19.33;;;2.10;99.90;;;;;;5198839;28;20283;-47
2023/12/07 08:19:49;;;;;;;43.13;19.93;;;2.10;99.90;;;;;;5196224;28;20556;-48
2023/12/07 08:22:20;;;;;;;35.33;19.20;;;2.20;99.90;;;;;;5199969;28;20431;-46
2023/12/07 08:24:51;;;;;;;41.23;20.47;;;2.20;99.90;;;;;;5211782;28;20206;-46
2023/12/07 08:27:21;;;;;;;35.70;16.70;;;2.20;99.90;;;;;;5195841;28;20214;-48
2023/12/07 08:29:52;;;;;;;34.67;18.90;;;2.20;99.90;;;;;;5215918;28;20207;-47
2023/12/07 08:32:25;;;;;;;38.70;19.83;;;2.20;99.90;;;;;;5190220;28;20180;-51
2023/12/07 08:34:56;;;;;;;35.00;19.50;;;2.20;99.90;;;;;;5211996;28;20191;-48
2023/12/07 08:37:26;;;;;;;37.13;18.87;;;2.20;99.90;;;;;;5194681;28;20989;-50
2023/12/07 08:39:57;;;;;;;38.27;20.40;;;2.20;99.90;;;;;;5197223;28;20441;-47
2023/12/07 08:42:27;;;;;;;37.13;19.90;;;2.20;99.90;;;;;;5214336;28;20210;-49
2023/12/07 08:44:58;;;;;;;40.50;21.43;;;2.20;99.90;;;;;;5212433;28;20200;-49
2023/12/07 08:47:30;;;;;;;33.60;18.80;;;2.30;99.90;;;;;;5221651;28;20187;-48
2023/12/07 08:50:00;;;;;;;37.50;18.70;;;2.30;99.90;;;;;;5202151;28;20203;-46
2023/12/07 08:52:31;;;;;;;32.43;18.03;;;2.40;99.90;;;;;;5190862;28;20976;-49
2023/12/07 08:55:02;;;;;;;37.17;20.03;;;2.50;99.90;;;;;;5203843;28;20187;-48
2023/12/07 08:57:32;;;;;;;32.03;17.80;;;2.50;99.90;;;;;;5200653;28;20199;-47
2023/12/07 09:00:03;;;;;;;35.10;18.77;;;2.50;99.90;;;;;;5189803;28;20188;-47
2023/12/07 09:02:34;;;;;;;31.00;17.70;;;2.50;99.90;;;;;;5200720;28;20186;-47
2023/12/07 09:05:05;;;;;;;35.23;19.40;;;2.50;99.90;;;;;;5202863;28;20430;-50
2023/12/07 09:07:36;;;;;;;27.37;16.17;;;2.50;99.90;;;;;;5204786;28;20198;-49
2023/12/07 09:10:08;;;;;;;34.70;18.77;;;2.60;99.90;;;;;;5187788;28;20462;-49
2023/12/07 09:12:39;;;;;;;29.13;17.23;;;2.50;99.90;;;;;;5188577;28;20640;-50
2023/12/07 09:15:10;;;;;;;27.93;16.37;;;2.50;99.90;;;;;;5202428;28;20426;-51
2023/12/07 09:17:41;;;;;;;33.60;18.40;;;2.60;99.90;;;;;;5203934;28;20721;-51
2023/12/07 09:20:12;;;;;;;34.70;19.27;;;2.60;99.90;;;;;;5190193;28;20998;-50
2023/12/07 09:22:44;;;;;;;31.60;18.27;;;2.60;99.90;;;;;;5188066;28;20533;-50
2023/12/07 09:25:18;;;;;;;35.00;18.90;;;2.60;99.90;;;;;;5188620;28;20222;-50
2023/12/07 09:27:48;;;;;;;29.83;17.17;;;2.60;99.90;;;;;;5205033;28;20438;-48
2023/12/07 09:30:19;;;;;;;44.70;19.90;;;2.60;99.90;;;;;;5200043;28;20458;-49
2023/12/07 09:32:49;;;;;;;30.70;18.50;;;2.70;99.90;;;;;;5201745;28;20214;-49
2023/12/07 09:35:20;;;;;;;31.17;18.60;;;2.70;99.90;;;;;;5188802;28;20640;-48
2023/12/07 09:37:51;;;;;;;36.10;20.20;;;2.70;99.90;;;;;;5194144;28;20229;-48
2023/12/07 09:40:24;;;;;;;33.40;17.90;;;2.80;99.90;;;;;;5200385;28;20183;-48
2023/12/07 09:42:55;;;;;;;34.27;19.10;;;2.70;99.90;;;;;;5188053;28;20211;-50
2023/12/07 09:45:25;;;;;;;36.43;19.57;;;2.70;99.90;;;;;;5202999;28;20830;-50
2023/12/07 09:47:56;;;;;;;33.97;17.60;;;2.70;99.90;;;;;;5201527;28;20183;-50
2023/12/07 09:50:27;;;;;;;32.87;16.50;;;2.70;99.90;;;;;;5205431;28;20208;-49
2023/12/07 09:52:58;;;;;;;37.43;18.90;;;2.70;99.90;;;;;;5187426;28;20283;-49
2023/12/07 09:55:30;;;;;;;27.70;15.23;;;2.70;99.90;;;;;;5203483;28;20534;-50
2023/12/07 09:58:03;;;;;;;21.97;13.60;;;2.70;99.90;;;;;;5201196;28;20168;-51
2023/12/07 10:00:34;;;;;;;25.13;14.17;;;2.70;99.90;;;;;;5207723;28;20430;-49
2023/12/07 10:03:07;;;;;;;31.83;17.00;;;2.70;99.90;;;;;;5185602;28;20463;-50
2023/12/07 10:05:55;;;;;;;24.77;14.63;;;2.60;99.90;;;;;;5187910;28;20234;-51
2023/12/07 10:08:35;;;;;;;27.60;13.87;;;2.60;99.90;;;;;;5188600;28;20428;-49
2023/12/07 10:11:08;;;;;;;30.10;14.93;;;2.60;99.90;;;;;;5191535;28;20470;-50
2023/12/07 10:13:38;;;;;;;31.27;16.90;;;2.60;99.90;;;;;;5209534;28;20815;-48
2023/12/07 10:16:18;;;;;;;31.00;17.90;;;2.60;99.90;;;;;;5200980;28;20476;-48
2023/12/07 10:18:49;;;;;;;30.13;17.87;;;2.60;99.90;;;;;;5216298;28;20186;-50
2023/12/07 10:21:33;;;;;;;28.97;16.97;;;2.60;99.90;;;;;;5213022;28;20434;-49
2023/12/07 10:24:03;;;;;;;28.23;17.70;;;2.50;99.90;;;;;;5225082;28;20464;-50
2023/12/07 10:26:36;;;;;;;32.97;17.97;;;2.50;99.90;;;;;;5209896;28;20430;-50
2023/12/07 10:29:07;;;;;;;40.10;18.70;;;2.50;99.90;;;;;;5190636;28;20644;-49
2023/12/07 10:31:37;;;;;;;42.57;19.50;;;2.60;99.90;;;;;;5189184;28;20501;-51
2023/12/07 10:34:09;;;;;;;37.50;17.87;;;2.60;99.90;;;;;;5204218;28;20470;-50
2023/12/07 10:36:39;;;;;;;39.43;19.07;;;2.60;99.90;;;;;;5197200;28;20209;-50
2023/12/07 10:39:10;;;;;;;29.70;18.47;;;2.50;99.90;;;;;;5196099;28;20465;-50
2023/12/07 10:41:44;;;;;;;42.77;20.63;;;2.50;99.90;;;;;;5191904;28;20188;-50
2023/12/07 10:44:16;;;;;;;37.20;18.50;;;2.40;99.90;;;;;;5209702;28;20200;-51
2023/12/07 10:46:48;;;;;;;36.20;18.33;;;2.40;99.90;;;;;;5207736;28;20949;-51
2023/12/07 10:49:26;;;;;;;34.50;16.87;;;2.40;99.90;;;;;;5189251;28;20534;-52
2023/12/07 10:52:00;;;;;;;29.03;16.30;;;2.50;99.90;;;;;;5205460;28;20520;-52
2023/12/07 10:54:41;;;;;;;43.17;17.30;;;2.60;99.90;;;;;;5186080;28;20978;-50
2023/12/07 10:57:13;;;;;;;36.63;17.60;;;2.60;99.90;;;;;;5207963;28;20482;-52
2023/12/07 10:59:45;;;;;;;29.70;17.93;;;2.70;99.90;;;;;;5207731;28;20518;-51
2023/12/07 11:02:16;;;;;;;29.63;16.40;;;2.70;99.90;;;;;;5207190;28;20457;-50
2023/12/07 11:04:48;;;;;;;38.80;19.07;;;2.80;99.90;;;;;;5206442;28;20564;-50
2023/12/07 11:07:22;;;;;;;39.00;17.93;;;2.80;99.90;;;;;;5192285;28;20438;-52
2023/12/07 11:10:05;;;;;;;36.13;18.40;;;2.80;99.90;;;;;;5207726;28;20454;-51
2023/12/07 11:12:49;;;;;;;30.97;17.30;;;2.90;99.90;;;;;;5207982;28;20445;-49
2023/12/07 11:15:20;;;;;;;34.97;18.10;;;3.00;99.90;;;;;;5205301;28;20537;-50
2023/12/07 11:17:53;;;;;;;31.03;17.43;;;3.10;99.90;;;;;;5190633;28;20506;-52
2023/12/07 11:20:40;;;;;;;28.63;15.53;;;3.00;99.90;;;;;;5207340;28;20434;-51
2023/12/07 11:23:11;;;;;;;32.13;17.13;;;3.00;99.90;;;;;;5219460;28;20462;-51
2023/12/07 11:25:43;;;;;;;27.23;14.30;;;2.90;99.90;;;;;;5193034;28;20529;-49
2023/12/07 11:28:15;;;;;;;27.90;13.80;;;2.80;99.90;;;;;;5191232;28;20453;-51
2023/12/07 11:30:46;;;;;;;31.10;14.53;;;2.80;99.90;;;;;;5204967;28;20477;-50
2023/12/07 11:33:17;;;;;;;27.50;15.63;;;2.90;99.90;;;;;;5205440;28;20486;-52
2023/12/07 11:36:02;;;;;;;33.03;16.03;;;2.90;99.90;;;;;;5207293;28;21893;-50
2023/12/07 11:38:33;;;;;;;24.23;15.07;;;3.00;99.90;;;;;;5192785;28;20187;-51
2023/12/07 11:41:04;;;;;;;24.73;14.10;;;3.00;99.90;;;;;;5204090;28;20438;-50
2023/12/07 11:43:35;;;;;;;24.90;14.50;;;3.00;99.90;;;;;;5186609;28;20200;-51
2023/12/07 11:46:09;;;;;;;35.53;15.57;;;3.10;99.90;;;;;;5186525;28;20493;-52
2023/12/07 11:48:47;;;;;;;29.70;15.43;;;3.10;99.90;;;;;;5187598;28;20195;-50
2023/12/07 11:51:18;;;;;;;28.53;16.60;;;3.10;99.90;;;;;;5187184;28;20462;-51
2023/12/07 11:53:50;;;;;;;27.30;15.60;;;3.10;99.90;;;;;;5209569;28;20445;-51
2023/12/07 11:56:21;;;;;;;34.27;18.83;;;3.00;99.90;;;;;;5190685;28;20186;-51
2023/12/07 11:58:52;;;;;;;40.80;20.20;;;2.90;99.90;;;;;;5189388;28;20481;-51
2023/12/07 12:01:25;;;;;;;31.90;17.37;;;2.90;99.90;;;;;;5203941;28;20442;-51
2023/12/07 12:03:55;;;;;;;37.37;20.80;;;2.90;99.90;;;;;;5203771;28;20829;-52
2023/12/07 12:06:27;;;;;;;34.40;18.43;;;2.80;99.90;;;;;;5185748;28;20439;-51
2023/12/07 12:08:58;;;;;;;44.17;20.90;;;2.70;99.90;;;;;;5207108;28;20172;-51
2023/12/07 12:11:29;;;;;;;37.10;18.90;;;2.70;99.90;;;;;;5191986;28;20473;-53
2023/12/07 12:14:00;;;;;;;34.77;19.50;;;2.70;99.90;;;;;;5203938;28;20195;-51
2023/12/07 12:16:31;;;;;;;39.27;21.10;;;2.80;99.90;;;;;;5190695;28;20431;-51
2023/12/07 12:19:01;;;;;;;51.37;23.93;;;2.70;99.90;;;;;;5191649;28;20176;-51
2023/12/07 12:21:38;;;;;;;38.97;20.33;;;2.70;99.90;;;;;;5187189;28;20282;-51
2023/12/07 12:24:11;;;;;;;39.27;20.50;;;2.70;99.90;;;;;;5188688;28;20203;-51
2023/12/07 12:26:44;;;;;;;35.67;19.93;;;2.80;99.90;;;;;;5190430;28;20965;-51
2023/12/07 12:29:15;;;;;;;34.63;19.13;;;2.70;99.90;;;;;;5204891;28;20942;-52
2023/12/07 12:31:46;;;;;;;37.17;20.33;;;2.70;99.90;;;;;;5200203;28;20466;-52
2023/12/07 12:34:20;;;;;;;37.07;19.73;;;2.80;99.90;;;;;;5188105;28;20450;-51
2023/12/07 12:36:56;;;;;;;35.20;19.00;;;2.80;99.90;;;;;;5203488;28;20434;-50
2023/12/07 12:39:31;;;;;;;41.13;20.50;;;2.80;99.90;;;;;;5186312;28;20429;-52
2023/12/07 12:42:04;;;;;;;40.13;19.43;;;2.80;99.90;;;;;;5189866;28;20934;-52
2023/12/07 12:44:35;;;;;;;41.60;20.27;;;2.80;99.90;;;;;;5191144;28;20460;-49
2023/12/07 12:47:10;;;;;;;39.63;19.70;;;2.80;99.90;;;;;;5202583;28;20422;-51
2023/12/07 12:49:46;;;;;;;36.10;20.60;;;2.80;99.90;;;;;;5205818;28;20249;-51
2023/12/07 12:52:17;;;;;;;40.87;21.10;;;2.80;99.90;;;;;;5203540;28;20767;-51
2023/12/07 12:54:48;;;;;;;40.03;21.37;;;2.70;99.90;;;;;;5187610;28;20462;-54
2023/12/07 12:57:19;;;;;;;40.67;21.50;;;2.70;99.90;;;;;;5204347;28;20435;-49